Pagrindinis puslapis
METAR-TAF:

METAR-TAF

Oro uostai :

Savoonga, Aliaska, Jungtinės Amerikos Valstijos

platuma: 63-41N, ilguma: 170-30W, Aukštis: 16 m

Dabartinis oras

Ataskaita buvo paskelbta 51 minutes, ne 22:56 UTC
Vėjas 9 kt iš Rytų/Šiaurės Rytų
Temperatūra 3°C
Drėgmė 87%
Slėgis 1017 hPa
Matomumas: 16.1 km
Mažai debesys ne aukštis 300 ft

METAR: PASA 052256Z AUTO 06009KT 10SM FEW003 03/01 A3003 RMK AO2 SLP171 T00330011

Laikas: 15:47 (23:47 UTC)


TAF: trūkstamas

Orai ataskaitas ir orų prognozės (METAR, TAF).

turimą stotys yra geltonos ir raudonos taškus žemėlapyje.

Perkelti pele per norėdami pamatyti stoties vardą.

Tada spustelėkite, norėdami matyti oro stebėjimo ir prognozės.

Norėdami pakeisti žemėlapį: spustelėkite ant žalios mygtukų su juodo kryžiaus žemyn,; žalią mygtuką su brūkšneliu, jei norite nutolinti; arba žalių rodyklių gretimoms žemėlapius.


METAR-TAF: